Time;durP1;ratioP1;P1;durP2;ratioP2;P2;SDS_P1;SDS_P2;PMS_P1;PMS_P2;Temp;Humidity;BMP_temperature;BMP_pressure;BME280_temperature;BME280_humidity;BME280_pressure;Samples;Min_cycle;Max_cycle;Signal;HPM_P1;HPM_P2
2022/03/26 00:01:00;;;;;;;;;18.50;16.25;;;;;20.35;28.95;102206.56;4974960;28;45470;-47
2022/03/26 00:03:25;;;;;;;;;17.25;15.50;;;;;20.35;29.11;102209.19;4974374;28;45254;-49
2022/03/26 00:05:51;;;;;;;;;20.50;15.25;;;;;20.34;29.23;102210.94;4974956;28;45324;-50
2022/03/26 00:08:16;;;;;;;;;16.25;15.25;;;;;20.34;29.22;102213.59;4974753;28;45566;-53
2022/03/26 00:10:41;;;;;;;;;18.00;16.75;;;;;20.34;28.94;102204.84;4973536;28;45186;-53
2022/03/26 00:13:07;;;;;;;;;14.75;14.00;;;;;20.33;28.83;102209.25;4973491;28;46278;-47
2022/03/26 00:15:32;;;;;;;;;17.25;15.25;;;;;20.33;28.96;102211.00;4973966;28;45398;-53
2022/03/26 00:17:58;;;;;;;;;16.75;13.25;;;;;20.33;29.14;102211.00;4974476;28;45248;-49
2022/03/26 00:20:23;;;;;;;;;16.50;14.75;;;;;20.32;28.93;102202.28;4975045;28;45416;-55
2022/03/26 00:22:48;;;;;;;;;19.75;17.00;;;;;20.32;28.77;102199.63;4974095;28;46207;-55
2022/03/26 00:25:15;;;;;;;;;19.50;15.75;;;;;20.32;29.19;102204.91;4974231;28;45444;-54
2022/03/26 00:27:41;;;;;;;;;18.00;15.75;;;;;20.32;29.20;102199.63;4974513;28;45472;-54
2022/03/26 00:30:07;;;;;;;;;15.75;14.25;;;;;20.32;28.67;102204.91;4974544;28;45366;-57
2022/03/26 00:32:33;;;;;;;;;19.00;14.50;;;;;20.32;29.16;102201.38;4974188;28;45413;-55
2022/03/26 00:34:59;;;;;;;;;22.50;16.50;;;;;20.31;29.21;102200.53;4974354;28;45279;-50
2022/03/26 00:37:24;;;;;;;;;17.50;15.50;;;;;20.32;28.84;102206.66;4974442;28;45455;-50
2022/03/26 00:39:50;;;;;;;;;17.25;16.50;;;;;20.31;29.07;102205.81;4974429;28;45385;-53
2022/03/26 00:42:15;;;;;;;;;17.50;17.00;;;;;20.31;29.16;102205.81;4973908;28;45284;-46
2022/03/26 00:44:41;;;;;;;;;16.75;15.25;;;;;20.31;28.85;102197.91;4972765;28;45903;-52
2022/03/26 00:47:07;;;;;;;;;20.00;18.00;;;;;20.31;29.10;102199.66;4974216;28;45228;-48
2022/03/26 00:49:33;;;;;;;;;20.00;18.00;;;;;20.29;29.17;102201.47;4974152;28;45520;-44
2022/03/26 00:51:58;;;;;;;;;19.75;17.00;;;;;20.30;29.15;102203.19;4972708;28;46440;-51
2022/03/26 00:54:24;;;;;;;;;21.50;16.25;;;;;20.29;28.85;102202.34;4972887;28;45441;-53
2022/03/26 00:56:50;;;;;;;;;19.75;18.00;;;;;20.30;29.14;102208.47;4974036;28;45386;-52
2022/03/26 00:59:15;;;;;;;;;22.50;18.00;;;;;20.29;29.18;102202.34;4974258;28;45300;-50
2022/03/26 01:01:40;;;;;;;;;17.00;17.00;;;;;20.30;28.69;102205.84;4972383;28;45873;-52
2022/03/26 01:04:06;;;;;;;;;19.00;17.00;;;;;20.30;28.73;102200.56;4973674;28;45390;-55
2022/03/26 01:06:31;;;;;;;;;16.50;15.00;;;;;20.29;29.05;102198.84;4973944;28;45437;-52
2022/03/26 01:08:57;;;;;;;;;15.25;15.25;;;;;20.28;29.22;102195.38;4974220;28;45552;-45
2022/03/26 01:11:23;;;;;;;;;18.75;16.75;;;;;20.28;29.25;102202.41;4973779;28;46375;-52
2022/03/26 01:13:49;;;;;;;;;20.25;18.50;;;;;20.28;29.04;102195.38;4973593;28;45320;-54
2022/03/26 01:16:15;;;;;;;;;17.25;17.25;;;;;20.28;29.06;102194.53;4973813;28;45382;-50
2022/03/26 01:18:41;;;;;;;;;17.50;16.00;;;;;20.27;29.18;102193.66;4973763;28;45321;-52
2022/03/26 01:21:06;;;;;;;;;19.00;14.50;;;;;20.28;28.75;102195.38;4973332;28;46621;-46
2022/03/26 01:23:32;;;;;;;;;20.25;18.25;;;;;20.28;28.87;102195.38;4973409;28;45248;-55
2022/03/26 01:25:58;;;;;;;;;18.50;15.50;;;;;20.26;28.75;102189.28;4975574;28;45282;-46
2022/03/26 01:28:24;;;;;;;;;17.75;17.00;;;;;20.27;28.85;102180.47;4977002;28;45374;-46
2022/03/26 01:30:49;;;;;;;;;15.00;13.00;;;;;20.25;29.07;102182.28;4976427;28;45432;-49
2022/03/26 01:33:14;;;;;;;;;20.00;17.00;;;;;20.26;28.81;102189.28;4976499;28;45248;-55
2022/03/26 01:35:40;;;;;;;;;16.25;15.50;;;;;20.26;29.16;102184.03;4976382;28;45365;-48
2022/03/26 01:38:06;;;;;;;;;18.00;14.50;;;;;20.26;29.05;102185.81;4975604;28;45625;-46
2022/03/26 01:40:33;;;;;;;;;16.50;15.00;;;;;20.25;29.22;102177.03;4976189;28;46004;-48
2022/03/26 01:42:59;;;;;;;;;18.50;16.50;;;;;20.26;28.92;102181.38;4976308;28;45809;-49
2022/03/26 01:45:25;;;;;;;;;18.25;16.25;;;;;20.24;28.93;102177.94;4976745;28;45355;-49
2022/03/26 01:47:51;;;;;;;;;19.75;18.00;;;;;20.26;29.21;102184.03;4976524;28;45208;-52
2022/03/26 01:50:16;;;;;;;;;20.00;18.25;;;;;20.24;29.48;102176.19;4976248;28;45521;-50
2022/03/26 01:52:41;;;;;;;;;15.75;15.00;;;;;20.23;29.26;102170.94;4976243;28;45343;-49
2022/03/26 01:55:08;;;;;;;;;13.25;12.50;;;;;20.24;28.82;102176.19;4976236;28;45342;-47
2022/03/26 01:57:33;;;;;;;;;19.25;17.00;;;;;20.24;28.86;102170.03;4975170;28;45404;-49
2022/03/26 02:00:00;;;;;;;;;26.25;19.25;;;;;20.24;29.40;102164.78;4976328;28;45363;-47
2022/03/26 02:02:25;;;;;;;;;19.50;16.50;;;;;20.22;29.15;102159.56;4976300;28;45952;-49
2022/03/26 02:04:51;;;;;;;;;14.75;14.75;;;;;20.22;29.46;102158.72;4976229;28;45332;-52
2022/03/26 02:07:17;;;;;;;;;17.75;17.75;;;;;20.23;29.32;102165.69;4976346;28;45779;-56
2022/03/26 02:09:43;;;;;;;;;19.25;17.50;;;;;20.21;29.27;102155.22;4975894;28;46190;-48
2022/03/26 02:12:22;;;;;;;;;18.75;16.75;;;;;20.22;28.94;102164.00;4975587;28;45444;-53
2022/03/26 02:14:48;;;;;;;;;19.50;16.75;;;;;20.21;29.09;102163.13;4976136;28;45488;-45
2022/03/26 02:17:13;;;;;;;;;18.50;16.00;;;;;20.21;29.03;102157.84;4976140;28;45494;-52
2022/03/26 02:19:39;;;;;;;;;18.50;16.25;;;;;20.21;28.96;102160.47;4975959;28;45445;-53
2022/03/26 02:22:05;;;;;;;;;20.75;17.75;;;;;20.20;29.20;102153.50;4975955;28;45444;-52
2022/03/26 02:24:30;;;;;;;;;16.50;13.00;;;;;20.21;29.27;102157.00;4976235;28;45308;-52
2022/03/26 02:26:55;;;;;;;;;21.75;17.00;;;;;20.21;29.21;102164.91;4976206;28;45359;-54
2022/03/26 02:29:21;;;;;;;;;18.00;15.50;;;;;20.20;29.32;102157.91;4974290;28;52251;-50
2022/03/26 02:31:46;;;;;;;;;20.75;17.75;;;;;20.20;29.18;102160.53;4975759;28;45374;-56
2022/03/26 02:34:11;;;;;;;;;19.50;19.25;;;;;20.19;29.36;102159.66;4976035;28;45328;-49
2022/03/26 02:36:37;;;;;;;;;20.50;18.50;;;;;20.20;28.79;102163.19;4974825;28;45288;-52
2022/03/26 02:39:04;;;;;;;;;17.75;14.25;;;;;20.20;28.97;102155.28;4975714;28;45501;-50
2022/03/26 02:41:31;;;;;;;;;19.50;16.00;;;;;20.19;29.24;102151.75;4976043;28;45450;-50
2022/03/26 02:43:56;;;;;;;;;16.75;14.25;;;;;20.20;29.47;102150.00;4975706;28;45232;-47
2022/03/26 02:46:21;;;;;;;;;18.00;15.75;;;;;20.19;29.18;102153.56;4975799;28;45173;-50
2022/03/26 02:48:47;;;;;;;;;17.00;16.25;;;;;20.19;29.39;102143.88;4975515;28;45175;-51
2022/03/26 02:51:12;;;;;;;;;21.25;19.75;;;;;20.19;29.28;102146.50;4975495;28;45710;-53
2022/03/26 02:53:37;;;;;;;;;16.75;16.50;;;;;20.19;29.29;102148.28;4974305;28;45361;-54
2022/03/26 02:56:03;;;;;;;;;19.25;18.25;;;;;20.20;28.99;102150.00;4975671;28;45461;-42
2022/03/26 02:58:28;;;;;;;;;24.50;18.50;;;;;20.18;29.38;102146.56;4975559;28;45341;-53
2022/03/26 03:00:54;;;;;;;;;18.25;16.00;;;;;20.18;29.03;102141.31;4975433;28;45371;-52
2022/03/26 03:03:19;;;;;;;;;19.75;17.50;;;;;20.18;29.39;102151.84;4975462;28;45441;-50
2022/03/26 03:05:48;;;;;;;;;19.25;16.25;;;;;20.18;29.44;102151.84;4975485;28;45456;-53
2022/03/26 03:08:14;;;;;;;;;21.50;17.00;;;;;20.19;29.32;102148.28;4975297;28;46261;-49
2022/03/26 03:10:44;;;;;;;;;18.50;17.00;;;;;20.18;29.41;102147.41;4990296;28;45925;-52
2022/03/26 03:13:10;;;;;;;;;18.00;17.25;;;;;20.17;29.03;102145.72;4975256;28;45322;-50
2022/03/26 03:15:36;;;;;;;;;18.75;16.25;;;;;20.18;29.43;102143.94;4975462;28;45416;-53
2022/03/26 03:18:02;;;;;;;;;19.50;17.50;;;;;20.17;29.36;102147.47;4975036;28;46188;-55
2022/03/26 03:20:29;;;;;;;;;15.50;14.75;;;;;20.18;29.39;102146.56;4976273;28;45900;-53
2022/03/26 03:22:55;;;;;;;;;16.50;16.00;;;;;20.16;29.19;102146.63;4973900;28;45240;-52
2022/03/26 03:25:20;;;;;;;;;19.00;18.75;;;;;20.16;29.18;102143.13;4975507;28;45197;-53
2022/03/26 03:27:47;;;;;;;;;24.50;17.75;;;;;20.16;29.56;102154.53;4975101;28;46000;-50
2022/03/26 03:30:12;;;;;;;;;17.75;17.25;;;;;20.16;29.05;102144.00;4975062;28;45286;-53
2022/03/26 03:32:37;;;;;;;;;17.75;16.25;;;;;20.16;29.52;102151.00;4975153;28;45653;-46
2022/03/26 03:35:05;;;;;;;;;15.75;14.50;;;;;20.15;29.22;102152.81;4975699;28;45488;-46
2022/03/26 03:37:34;;;;;;;;;19.00;17.00;;;;;20.15;29.40;102149.28;4975134;28;46231;-54
2022/03/26 03:40:00;;;;;;;;;19.00;16.25;;;;;20.16;29.37;102148.38;4975087;28;45861;-47
2022/03/26 03:42:25;;;;;;;;;19.50;18.25;;;;;20.15;29.23;102151.91;4975082;28;45375;-53
2022/03/26 03:44:51;;;;;;;;;13.25;11.75;;;;;20.15;28.97;102144.91;4974698;28;45582;-55
2022/03/26 03:47:16;;;;;;;;;23.00;19.00;;;;;20.14;29.32;102147.56;4974811;28;46021;-53
2022/03/26 03:49:41;;;;;;;;;19.50;16.25;;;;;20.14;29.32;102144.94;4974588;28;45276;-54
2022/03/26 03:52:07;;;;;;;;;21.25;17.00;;;;;20.14;28.91;102151.06;4973583;28;45236;-52
2022/03/26 03:54:32;;;;;;;;;18.50;15.75;;;;;20.15;29.17;102151.91;4975476;28;45647;-55
2022/03/26 03:56:57;;;;;;;;;18.00;16.75;;;;;20.14;29.14;102150.19;4974623;28;45362;-53
2022/03/26 03:59:23;;;;;;;;;14.25;13.25;;;;;20.14;29.13;102150.19;4974475;28;50386;-52
2022/03/26 04:01:49;;;;;;;;;16.25;16.25;;;;;20.14;29.34;102158.97;4973447;28;45371;-48
2022/03/26 04:04:14;;;;;;;;;14.00;14.00;;;;;20.14;29.13;102155.47;4974873;28;45406;-50
2022/03/26 04:06:40;;;;;;;;;23.75;21.50;;;;;20.13;29.51;102157.25;4974454;28;45489;-47
2022/03/26 04:09:05;;;;;;;;;18.00;16.50;;;;;20.14;29.08;102152.84;4974892;28;45364;-48
2022/03/26 04:11:30;;;;;;;;;20.75;16.50;;;;;20.13;29.14;102161.63;4974622;28;45557;-46
2022/03/26 04:13:56;;;;;;;;;22.50;18.00;;;;;20.13;29.46;102153.75;4974924;28;45976;-54
2022/03/26 04:16:23;;;;;;;;;17.75;15.50;;;;;20.13;28.98;102159.00;4974421;28;45353;-48
2022/03/26 04:18:49;;;;;;;;;23.00;19.50;;;;;20.13;29.16;102159.00;4974425;28;45365;-55
2022/03/26 04:21:15;;;;;;;;;18.75;18.75;;;;;20.13;29.44;102165.16;4973258;28;45344;-50
2022/03/26 04:23:41;;;;;;;;;17.00;15.25;;;;;20.13;29.14;102159.00;4974736;28;45512;-51
2022/03/26 04:26:08;;;;;;;;;16.00;15.00;;;;;20.13;29.19;102164.25;4974657;28;45347;-53
2022/03/26 04:28:33;;;;;;;;;17.75;15.50;;;;;20.12;29.11;102159.94;4974613;28;45377;-55
2022/03/26 04:30:59;;;;;;;;;14.75;14.75;;;;;20.12;29.41;102159.94;4974562;28;45599;-48
2022/03/26 04:33:24;;;;;;;;;15.50;14.75;;;;;20.12;29.34;102167.84;4974640;28;45530;-55
2022/03/26 04:35:49;;;;;;;;;15.75;15.25;;;;;20.12;29.52;102168.69;4974125;28;46027;-46
2022/03/26 04:38:15;;;;;;;;;17.50;14.75;;;;;20.11;29.75;102166.97;4974323;28;45460;-54
2022/03/26 04:40:41;;;;;;;;;18.75;15.75;;;;;20.12;29.44;102160.78;4974282;28;45367;-53
2022/03/26 04:43:06;;;;;;;;;18.25;17.75;;;;;20.11;29.74;102160.84;4974610;28;45309;-50
2022/03/26 04:45:32;;;;;;;;;19.75;19.00;;;;;20.11;29.18;102166.97;4974029;28;45906;-52
2022/03/26 04:47:58;;;;;;;;;14.75;12.50;;;;;20.11;29.52;102168.75;4973958;28;45349;-56
2022/03/26 04:50:24;;;;;;;;;18.75;15.75;;;;;20.11;29.60;102174.00;4972888;28;45345;-53
2022/03/26 04:52:49;;;;;;;;;16.00;14.00;;;;;20.11;29.54;102166.13;4974305;28;45235;-54
2022/03/26 04:55:15;;;;;;;;;17.50;16.50;;;;;20.11;29.41;102169.59;4973698;28;45368;-55
2022/03/26 04:57:42;;;;;;;;;17.50;17.50;;;;;20.10;29.68;102165.22;4973893;28;45248;-53
2022/03/26 05:00:10;;;;;;;;;16.25;15.75;;;;;20.10;29.36;102159.13;4975188;28;45402;-55
2022/03/26 05:02:39;;;;;;;;;17.25;16.75;;;;;20.10;29.26;102156.50;4977338;28;45530;-55
2022/03/26 05:05:05;;;;;;;;;20.25;18.00;;;;;20.10;29.29;102159.13;4977054;28;47096;-55
2022/03/26 05:07:46;;;;;;;;;17.25;16.75;;;;;20.08;29.26;102167.94;4976887;28;45398;-53
2022/03/26 05:10:12;;;;;;;;;18.00;15.25;;;;;20.10;29.81;102164.38;4976906;28;45426;-54
2022/03/26 05:12:38;;;;;;;;;20.50;18.50;;;;;20.08;29.23;102162.66;4977359;28;45287;-53
2022/03/26 05:15:03;;;;;;;;;15.50;14.50;;;;;20.10;29.60;102172.28;4976731;28;45288;-54
2022/03/26 05:17:29;;;;;;;;;15.50;14.00;;;;;20.08;29.63;102172.31;4976417;28;45212;-53
2022/03/26 05:19:54;;;;;;;;;17.00;15.00;;;;;20.07;29.55;102176.72;4976796;28;45243;-51
2022/03/26 05:22:20;;;;;;;;;19.75;18.00;;;;;20.09;29.61;102174.03;4976620;28;45342;-55
2022/03/26 05:24:45;;;;;;;;;18.00;15.75;;;;;20.07;29.13;102174.09;4976441;28;47065;-50
2022/03/26 05:27:10;;;;;;;;;18.00;16.25;;;;;20.08;29.62;102172.31;4976795;28;45250;-49
2022/03/26 05:29:36;;;;;;;;;15.75;15.50;;;;;20.09;29.77;102176.66;4975736;28;45824;-49
2022/03/26 05:32:02;;;;;;;;;16.50;15.00;;;;;20.08;29.56;102174.94;4976700;28;45528;-50
2022/03/26 05:34:27;;;;;;;;;20.75;16.00;;;;;20.07;29.34;102176.72;4976470;28;47217;-54
2022/03/26 05:36:53;;;;;;;;;14.50;14.50;;;;;20.07;29.28;102176.72;4976291;28;45497;-52
2022/03/26 05:39:18;;;;;;;;;16.50;16.50;;;;;20.08;29.08;102190.75;4976520;28;45316;-51
2022/03/26 05:41:43;;;;;;;;;19.25;16.75;;;;;20.06;29.63;102190.81;4976645;28;45470;-46
2022/03/26 05:44:09;;;;;;;;;20.00;16.25;;;;;20.07;29.71;102195.16;4976406;28;49627;-49
2022/03/26 05:46:34;;;;;;;;;18.00;16.00;;;;;20.06;29.59;102198.69;4976220;28;45332;-48
2022/03/26 05:48:59;;;;;;;;;20.25;18.25;;;;;20.08;29.20;102203.91;4976115;28;49636;-51
2022/03/26 05:51:25;;;;;;;;;18.00;16.25;;;;;20.06;29.21;102201.31;4976496;28;45409;-55
2022/03/26 05:53:50;;;;;;;;;23.00;17.75;;;;;20.07;29.79;102203.06;4976209;28;45548;-48
2022/03/26 05:56:16;;;;;;;;;16.50;15.50;;;;;20.06;29.50;102200.47;4976105;28;45409;-48
2022/03/26 05:58:41;;;;;;;;;18.75;18.25;;;;;20.06;29.30;102201.31;4976488;28;45330;-56
2022/03/26 06:01:07;;;;;;;;;18.75;16.50;;;;;20.06;29.28;102205.75;4976294;28;45370;-50
2022/03/26 06:03:32;;;;;;;;;19.50;17.50;;;;;20.06;29.44;102203.09;4975994;28;45257;-55
2022/03/26 06:05:58;;;;;;;;;36.00;25.75;;;;;20.05;28.70;102196.97;4976007;28;45247;-48
2022/03/26 06:08:24;;;;;;;;;26.00;20.75;;;;;20.02;29.18;102198.84;4975894;28;45258;-49
2022/03/26 06:10:49;;;;;;;;;36.00;30.50;;;;;20.01;29.37;102205.00;4976130;28;45581;-49
2022/03/26 06:13:14;;;;;;;;;34.50;29.25;;;;;19.98;29.18;102203.34;4975792;28;45327;-51
2022/03/26 06:15:41;;;;;;;;;38.50;32.75;;;;;19.97;28.90;102211.25;4975932;28;45185;-50
2022/03/26 06:18:06;;;;;;;;;33.00;29.75;;;;;19.94;29.11;102209.59;4975822;28;45355;-53
2022/03/26 06:20:32;;;;;;;;;37.00;31.75;;;;;19.92;28.94;102206.16;4975768;28;45471;-47
2022/03/26 06:22:57;;;;;;;;;45.25;33.25;;;;;19.91;28.95;102213.19;4975602;28;46354;-46
2022/03/26 06:25:22;;;;;;;;;40.75;32.75;;;;;19.89;28.67;102224.69;4975832;28;45444;-51
2022/03/26 06:27:49;;;;;;;;;35.25;30.75;;;;;19.87;28.55;102222.09;4975785;28;45453;-48
2022/03/26 06:30:15;;;;;;;;;37.25;31.50;;;;;19.85;28.74;102223.84;4975910;28;45454;-47
2022/03/26 06:32:40;;;;;;;;;41.00;31.25;;;;;19.83;28.84;102225.69;4975831;28;45932;-48
2022/03/26 06:35:06;;;;;;;;;42.75;33.25;;;;;19.82;28.49;102233.63;4975589;28;45402;-50
2022/03/26 06:37:31;;;;;;;;;43.00;33.25;;;;;19.81;28.51;102231.88;4975452;28;45357;-51
2022/03/26 06:39:58;;;;;;;;;41.25;34.50;;;;;19.80;28.51;102231.03;4975544;28;45623;-50
2022/03/26 06:42:24;;;;;;;;;44.75;34.25;;;;;19.80;28.92;102231.03;4975224;28;45383;-50
2022/03/26 06:44:49;;;;;;;;;41.00;32.75;;;;;19.79;28.81;102234.59;4975194;28;45284;-47
2022/03/26 06:47:14;;;;;;;;;38.25;30.75;;;;;19.78;28.80;102239.00;4975282;28;45228;-45
2022/03/26 06:49:41;;;;;;;;;38.50;33.25;;;;;19.77;28.71;102245.16;4975846;28;45576;-45
2022/03/26 06:52:07;;;;;;;;;42.25;34.00;;;;;19.77;28.91;102239.91;4957932;28;48110;-46
2022/03/26 06:54:33;;;;;;;;;39.25;32.50;;;;;19.77;28.63;102239.03;4975141;28;45852;-44
2022/03/26 06:56:58;;;;;;;;;44.25;36.50;;;;;19.78;28.18;102246.00;4974050;28;45452;-50
2022/03/26 06:59:24;;;;;;;;;40.00;34.50;;;;;19.77;28.51;102253.06;4975400;28;45354;-48
2022/03/26 07:01:49;;;;;;;;;45.00;35.00;;;;;19.76;28.62;102246.06;4975052;28;46547;-44
2022/03/26 07:04:15;;;;;;;;;43.75;34.25;;;;;19.76;28.65;102251.31;4975253;28;45367;-44
2022/03/26 07:06:40;;;;;;;;;46.25;35.00;;;;;19.76;28.57;102259.22;4975449;28;45633;-46
2022/03/26 07:09:05;;;;;;;;;42.50;31.75;;;;;19.75;28.28;102259.25;4975481;28;45476;-46
2022/03/26 07:11:31;;;;;;;;;33.67;31.33;;;;;19.75;28.53;102256.63;4974727;28;52295;-47
2022/03/26 07:13:56;;;;;;;;;37.00;32.00;;;;;19.76;28.53;102263.59;4974955;28;45418;-51
2022/03/26 07:16:21;;;;;;;;;41.67;35.33;;;;;19.76;28.54;102264.47;4974983;28;45476;-50
2022/03/26 07:18:47;;;;;;;;;35.25;30.75;;;;;19.76;28.18;102275.00;4974950;28;45603;-46
2022/03/26 07:21:12;;;;;;;;;36.75;32.50;;;;;19.76;28.78;102282.91;4975151;28;45391;-48
2022/03/26 07:23:38;;;;;;;;;40.00;34.33;;;;;19.75;28.66;102275.91;4974364;28;45365;-45
2022/03/26 07:26:03;;;;;;;;;39.25;32.00;;;;;19.75;28.46;102281.16;4974923;28;45264;-48
2022/03/26 07:28:29;;;;;;;;;38.00;31.75;;;;;19.76;28.68;102282.91;4975082;28;45566;-49
2022/03/26 07:30:54;;;;;;;;;38.25;31.00;;;;;19.77;28.80;102283.75;4973437;28;46846;-47
2022/03/26 07:33:20;;;;;;;;;37.00;32.25;;;;;19.77;28.28;102278.47;4974785;28;45366;-46
2022/03/26 07:35:45;;;;;;;;;33.75;29.50;;;;;19.78;28.50;102285.47;4975291;28;45350;-52
2022/03/26 07:38:12;;;;;;;;;45.25;34.25;;;;;19.77;28.38;102283.75;4974933;28;45182;-49
2022/03/26 07:40:37;;;;;;;;;37.75;33.50;;;;;19.77;28.42;102289.88;4973506;28;47630;-48
2022/03/26 07:43:03;;;;;;;;;38.25;31.75;;;;;19.77;28.06;102295.16;4974569;28;45342;-50
2022/03/26 07:45:28;;;;;;;;;36.00;31.75;;;;;19.78;28.26;102293.38;4974667;28;45375;-45
2022/03/26 07:47:55;;;;;;;;;38.50;33.50;;;;;19.78;28.61;102288.09;4974856;28;45489;-46
2022/03/26 07:50:20;;;;;;;;;36.00;31.75;;;;;19.77;28.39;102289.88;4974405;28;46110;-48
2022/03/26 07:52:45;;;;;;;;;33.00;30.50;;;;;19.78;28.32;102290.72;4974888;28;45263;-46
2022/03/26 07:55:11;;;;;;;;;36.50;31.75;;;;;19.79;28.51;102297.72;4974722;28;45396;-46
2022/03/26 07:57:37;;;;;;;;;38.75;32.00;;;;;19.77;28.06;102300.41;4974813;28;45508;-52
2022/03/26 08:00:05;;;;;;;;;35.75;30.75;;;;;19.78;28.17;102291.63;4974477;28;46027;-49
2022/03/26 08:02:30;;;;;;;;;31.75;30.25;;;;;19.78;28.19;102293.38;4974428;28;45284;-52
2022/03/26 08:04:55;;;;;;;;;30.33;25.67;;;;;19.78;28.44;102288.09;4974675;28;45304;-49
2022/03/26 08:07:21;;;;;;;;;34.25;31.25;;;;;19.78;28.20;102291.63;4974700;28;45280;-48
2022/03/26 08:09:47;;;;;;;;;34.00;29.25;;;;;19.79;28.31;102292.47;4974401;28;46154;-51
2022/03/26 08:12:12;;;;;;;;;35.00;31.25;;;;;19.78;28.28;102290.72;4974225;28;45424;-47
2022/03/26 08:14:38;;;;;;;;;33.50;31.25;;;;;19.79;28.24;102292.47;4974433;28;45390;-49
2022/03/26 08:17:03;;;;;;;;;32.25;31.00;;;;;19.80;28.11;102293.31;4974455;28;45438;-50
2022/03/26 08:19:29;;;;;;;;;36.00;30.25;;;;;19.79;28.28;102292.47;4976181;28;45413;-48
2022/03/26 08:21:54;;;;;;;;;38.00;31.25;;;;;19.79;28.25;102300.34;4974194;28;45527;-50
2022/03/26 08:24:19;;;;;;;;;42.50;31.25;;;;;19.79;28.03;102295.09;4974410;28;45314;-49
2022/03/26 08:26:45;;;;;;;;;35.50;31.25;;;;;19.81;28.49;102292.41;4974778;28;45336;-48
2022/03/26 08:29:10;;;;;;;;;39.00;32.75;;;;;19.81;28.13;102293.28;4973963;28;46239;-46
2022/03/26 08:31:36;;;;;;;;;32.25;29.75;;;;;19.83;28.59;102293.22;4974086;28;45276;-48
2022/03/26 08:34:02;;;;;;;;;35.00;30.75;;;;;19.82;28.50;102294.13;4973698;28;45481;-49
2022/03/26 08:36:28;;;;;;;;;34.00;28.75;;;;;19.83;28.20;102304.63;4973799;28;45519;-46
2022/03/26 08:38:54;;;;;;;;;36.00;30.00;;;;;19.83;28.52;102301.13;4974027;28;46399;-51
2022/03/26 08:41:21;;;;;;;;;36.00;28.75;;;;;19.85;28.26;102296.69;4974385;28;45787;-50
2022/03/26 08:43:50;;;;;;;;;28.50;27.00;;;;;19.83;28.45;102299.38;4974403;28;45394;-49
2022/03/26 08:46:15;;;;;;;;;33.00;29.50;;;;;19.85;28.52;102301.94;4974617;28;45466;-50
2022/03/26 08:48:41;;;;;;;;;28.50;24.75;;;;;19.85;28.50;102299.31;4973871;28;46091;-48
2022/03/26 08:51:06;;;;;;;;;31.25;28.25;;;;;19.85;28.65;102294.06;4973825;28;45405;-49
2022/03/26 08:53:32;;;;;;;;;27.50;24.25;;;;;19.87;28.56;102302.81;4973861;28;45681;-48
2022/03/26 08:55:57;;;;;;;;;31.75;27.25;;;;;19.88;28.36;102302.75;4974141;28;45417;-50
2022/03/26 08:58:23;;;;;;;;;34.50;28.25;;;;;19.89;28.41;102301.00;4973649;28;46112;-49
2022/03/26 09:00:51;;;;;;;;;33.75;26.50;;;;;19.90;28.53;102303.56;4974054;28;45268;-48
2022/03/26 09:03:20;;;;;;;;;31.50;29.75;;;;;19.93;28.51;102307.88;4974120;28;45365;-48
2022/03/26 09:05:52;;;;;;;;;31.75;27.00;;;;;19.93;28.16;102305.25;4973951;28;45474;-48
2022/03/26 09:08:18;;;;;;;;;30.00;28.25;;;;;19.93;28.55;102300.84;4973756;28;45529;-49
2022/03/26 09:10:44;;;;;;;;;35.25;29.75;;;;;19.95;28.15;102306.06;4973531;28;45841;-46
2022/03/26 09:13:10;;;;;;;;;29.50;26.75;;;;;19.96;28.25;102301.66;4972366;28;45356;-48
2022/03/26 09:15:36;;;;;;;;;37.50;30.50;;;;;19.97;28.22;102295.47;4973839;28;45657;-47
2022/03/26 09:18:01;;;;;;;;;30.00;27.00;;;;;19.98;28.29;102298.09;4973206;28;46450;-50
2022/03/26 09:20:27;;;;;;;;;28.75;25.50;;;;;19.99;28.10;102299.81;4973551;28;45360;-44
2022/03/26 09:22:52;;;;;;;;;32.25;27.75;;;;;20.01;28.28;102292.72;4973351;28;45438;-48
2022/03/26 09:25:19;;;;;;;;;30.50;20.00;;;;;20.02;28.12;102291.81;4972724;28;45599;-49
2022/03/26 09:27:44;;;;;;;;;26.50;24.00;;;;;20.03;28.46;102296.16;4973256;28;46912;-48
2022/03/26 09:30:10;;;;;;;;;33.50;27.75;;;;;20.04;28.23;102292.63;4973269;28;45346;-47
2022/03/26 09:32:35;;;;;;;;;28.75;21.75;;;;;20.05;28.10;102294.34;4973035;28;45210;-49
2022/03/26 09:35:01;;;;;;;;;30.75;25.00;;;;;20.05;28.15;102296.97;4972104;28;45645;-47
2022/03/26 09:37:26;;;;;;;;;30.50;26.25;;;;;20.08;28.30;102290.75;4973069;28;45373;-50
2022/03/26 09:39:51;;;;;;;;;34.50;29.75;;;;;20.09;28.21;102300.38;4973497;28;45260;-50
2022/03/26 09:42:17;;;;;;;;;29.25;27.50;;;;;20.09;28.12;102289.84;4973255;28;45396;-50
2022/03/26 09:44:43;;;;;;;;;33.75;25.25;;;;;20.09;28.03;102289.84;4973287;28;45351;-48
2022/03/26 09:47:09;;;;;;;;;30.50;27.75;;;;;20.10;28.23;102290.72;4975162;28;46259;-51
2022/03/26 09:49:37;;;;;;;;;30.50;27.00;;;;;20.10;28.30;102291.56;4976277;28;46074;-45
2022/03/26 09:52:06;;;;;;;;;32.00;25.25;;;;;20.13;28.65;102291.50;4976268;28;45268;-49
2022/03/26 09:54:33;;;;;;;;;30.00;26.50;;;;;20.13;28.67;102293.25;4976207;28;45423;-51
2022/03/26 09:56:58;;;;;;;;;34.25;30.50;;;;;20.13;28.41;102283.59;4975881;28;46120;-48
2022/03/26 09:59:24;;;;;;;;;36.75;29.75;;;;;20.14;28.04;102292.34;4975771;28;45434;-48
2022/03/26 10:01:50;;;;;;;;;36.50;27.50;;;;;20.12;28.42;102289.75;4976223;28;45498;-51
2022/03/26 10:04:19;;;;;;;;;37.75;29.75;;;;;20.14;28.08;102287.06;4976059;28;45287;-48
2022/03/26 10:06:52;;;;;;;;;33.00;29.50;;;;;20.12;27.66;102288.91;4975703;28;46249;-47
2022/03/26 10:09:45;;;;;;;;;33.50;25.75;;;;;20.12;28.27;102284.50;4975636;27;45934;-49
2022/03/26 10:12:27;;;;;;;;;28.00;23.75;;;;;20.12;28.10;102288.91;4977194;28;45558;-43
2022/03/26 10:14:52;;;;;;;;;35.75;30.75;;;;;20.13;27.94;102285.34;4975001;28;45513;-41
2022/03/26 10:17:20;;;;;;;;;30.00;28.00;;;;;20.15;27.82;102288.81;4975224;28;45928;-51
2022/03/26 10:19:57;;;;;;;;;33.75;30.25;;;;;20.17;27.84;102281.72;4975675;28;45464;-51
2022/03/26 10:22:34;;;;;;;;;32.50;29.25;;;;;20.19;27.78;102282.53;4974704;28;45536;-54
2022/03/26 10:25:14;;;;;;;;;34.50;30.25;;;;;20.19;27.86;102278.13;4975819;28;45510;-55
2022/03/26 10:27:59;;;;;;;;;33.25;30.25;;;;;20.17;27.74;102276.47;4975450;28;45358;-52
2022/03/26 10:33:28;;;;;;;;;37.75;27.25;;;;;20.16;28.21;102277.38;4975574;28;45257;-55
2022/03/26 10:36:00;;;;;;;;;34.00;28.75;;;;;20.16;28.23;102274.72;4974755;28;45454;-55
2022/03/26 10:38:41;;;;;;;;;31.25;30.25;;;;;20.16;27.88;102277.38;4975404;28;46721;-52
2022/03/26 10:41:08;;;;;;;;;27.00;26.00;;;;;20.15;28.27;102267.75;4973956;28;45897;-53
2022/03/26 10:43:34;;;;;;;;;32.50;29.50;;;;;20.15;27.79;102263.34;4975493;28;45379;-55
2022/03/26 10:46:01;;;;;;;;;34.75;29.25;;;;;20.15;28.04;102263.34;4975620;28;45330;-55
2022/03/26 10:48:32;;;;;;;;;35.25;29.50;;;;;20.16;27.84;102258.94;4975245;28;45383;-49
2022/03/26 10:51:09;;;;;;;;;32.50;28.00;;;;;20.16;27.60;102264.19;4975162;28;45308;-53
2022/03/26 10:53:39;;;;;;;;;29.50;28.00;;;;;20.16;27.77;102253.69;4975517;28;45330;-52
2022/03/26 10:56:06;;;;;;;;;37.00;29.00;;;;;20.17;28.43;102258.03;4975574;28;45483;-49
2022/03/26 10:58:33;;;;;;;;;38.75;32.00;;;;;20.18;28.20;102262.38;4974185;28;46413;-46
2022/03/26 11:00:59;;;;;;;;;37.75;29.75;;;;;20.17;28.13;102258.91;4975175;28;45871;-52
2022/03/26 11:03:25;;;;;;;;;34.75;31.25;;;;;20.16;28.57;102254.56;4975408;28;45410;-54
2022/03/26 11:05:55;;;;;;;;;36.00;25.00;;;;;20.18;27.85;102254.50;4974145;28;45246;-53
2022/03/26 11:08:23;;;;;;;;;34.25;27.50;;;;;20.19;28.27;102254.44;4974987;28;46509;-54